DJO weather

Daloa Airport
Haut-Sassandra, Côte d'Ivoire

Public forecast

Using degrees Celsius for public forecast. Weather courtesy of forecast.io.

METAR (pilot weather report)

Report is more than 6 hours old.

Retrieved 2017/12/31 03:00 UTC (1 year ago):

DIDL 310300Z ///// 6000 NSC 23/23 Q1013 NOSIG

TAF (pilot weather forecast)

Closest forecast is Yamoussoukro Airport, 66.4 nm (122.9 km) E. Retrieved 2019/02/19 12:00 UTC (3 hours ago):

TAF DIYO 191100Z 1912/2012 24010KT 8000 SCT013 PROB30 TEMPO 1917/1922 TS BKN013 FEW025CB TEMPO 2005/2009 2000 BR